Time;durP1;ratioP1;P1;durP2;ratioP2;P2;SDS_P1;SDS_P2;PMS_P1;PMS_P2;Temp;Humidity;BMP_temperature;BMP_pressure;BME280_temperature;BME280_humidity;BME280_pressure;Samples;Min_cycle;Max_cycle;Signal;HPM_P1;HPM_P2
2023/02/23 00:01:25;;;;;;;25.40;14.90;;;;;;;;;;5084259;28;20181;-87
2023/02/23 00:04:30;;;;;;;19.43;13.23;;;;;;;;;;5073356;28;20205;-88
2023/02/23 00:07:35;;;;;;;21.73;14.33;;;;;;;;;;5072946;28;20189;-87
2023/02/23 00:10:39;;;;;;;21.63;13.57;;;;;;;;;;5072951;28;20191;-88
2023/02/23 00:13:45;;;;;;;23.20;14.03;;;;;;;;;;5072520;28;20184;-88
2023/02/23 00:16:50;;;;;;;22.67;14.43;;;;;;;;;;5060945;28;20202;-88
2023/02/23 00:19:54;;;;;;;22.87;14.13;;;;;;;;;;5061617;28;20219;-87
2023/02/23 00:22:58;;;;;;;20.27;13.80;;;;;;;;;;5073088;28;20700;-88
2023/02/23 00:26:03;;;;;;;20.90;13.80;;;;;;;;;;5061077;28;20203;-88
2023/02/23 00:29:11;;;;;;;21.07;15.03;;;;;;;;;;5072627;28;20221;-88
2023/02/23 00:32:19;;;;;;;21.30;13.70;;;;;;;;;;5061153;28;20186;-87
2023/02/23 00:35:23;;;;;;;22.97;14.83;;;;;;;;;;5061437;28;20195;-87
2023/02/23 00:38:27;;;;;;;24.70;15.27;;;;;;;;;;5071921;28;20239;-87
2023/02/23 00:41:32;;;;;;;23.07;14.00;;;;;;;;;;5071870;28;20178;-87
2023/02/23 00:44:39;;;;;;;22.63;15.27;;;;;;;;;;5071744;28;20201;-88
2023/02/23 00:47:43;;;;;;;22.63;14.70;;;;;;;;;;5060229;28;20205;-88
2023/02/23 00:50:59;;;;;;;23.73;15.67;;;;;;;;;;5071635;28;20194;-88
2023/02/23 00:54:03;;;;;;;26.20;15.67;;;;;;;;;;5060516;28;20179;-87
2023/02/23 00:57:07;;;;;;;23.13;14.50;;;;;;;;;;5060196;28;20214;-88
2023/02/23 01:00:19;;;;;;;24.80;15.67;;;;;;;;;;5072218;28;20186;-88
2023/02/23 01:03:32;;;;;;;25.13;16.60;;;;;;;;;;5059521;28;20186;-87
2023/02/23 01:06:37;;;;;;;22.90;15.73;;;;;;;;;;5060348;28;20184;-88
2023/02/23 01:09:42;;;;;;;26.97;16.50;;;;;;;;;;5071900;28;20555;-88
2023/02/23 01:12:50;;;;;;;26.07;16.30;;;;;;;;;;5072928;28;20194;-87
2023/02/23 01:15:54;;;;;;;30.87;16.50;;;;;;;;;;5072250;28;20207;-88
2023/02/23 01:19:02;;;;;;;29.60;16.27;;;;;;;;;;5072735;28;20225;-88
2023/02/23 01:22:06;;;;;;;24.57;16.53;;;;;;;;;;5060561;28;20668;-88
2023/02/23 01:25:11;;;;;;;22.83;16.60;;;;;;;;;;5060061;28;20197;-88
2023/02/23 01:28:15;;;;;;;24.60;16.37;;;;;;;;;;5060668;28;20221;-88
2023/02/23 01:31:21;;;;;;;28.67;16.77;;;;;;;;;;5071740;28;20210;-87
2023/02/23 01:34:25;;;;;;;27.67;16.23;;;;;;;;;;5071061;28;20182;-88
2023/02/23 01:37:34;;;;;;;25.80;16.30;;;;;;;;;;5070332;28;20569;-87
2023/02/23 01:40:42;;;;;;;27.53;16.40;;;;;;;;;;5059479;28;20190;-88
2023/02/23 01:44:02;;;;;;;26.53;16.37;;;;;;;;;;5059240;28;20183;-87
2023/02/23 01:47:07;;;;;;;28.20;17.07;;;;;;;;;;5070825;28;20657;-88
2023/02/23 01:50:11;;;;;;;26.20;16.63;;;;;;;;;;5060695;28;20185;-88
2023/02/23 01:53:16;;;;;;;27.77;17.77;;;;;;;;;;5075004;28;20211;-88
2023/02/23 01:56:26;;;;;;;29.50;17.53;;;;;;;;;;5063422;28;20223;-88
2023/02/23 01:59:36;;;;;;;26.30;17.27;;;;;;;;;;5063192;28;20218;-87
2023/02/23 02:02:41;;;;;;;30.07;17.10;;;;;;;;;;5074955;28;20549;-88
2023/02/23 02:05:48;;;;;;;28.73;16.83;;;;;;;;;;5074639;28;20187;-88
2023/02/23 02:08:55;;;;;;;25.83;16.67;;;;;;;;;;5086365;28;20225;-87
2023/02/23 02:12:01;;;;;;;27.43;17.03;;;;;;;;;;5075077;28;20194;-88
2023/02/23 02:15:15;;;;;;;29.13;17.93;;;;;;;;;;5086294;28;20188;-87
2023/02/23 02:18:37;;;;;;;24.80;16.47;;;;;;;;;;5063652;28;20218;-88
2023/02/23 02:22:03;;;;;;;29.83;17.67;;;;;;;;;;5086075;28;20185;-88
2023/02/23 02:25:22;;;;;;;26.50;17.00;;;;;;;;;;5074596;28;20186;-88
2023/02/23 02:29:00;;;;;;;25.17;17.47;;;;;;;;;;5074285;28;20221;-88
2023/02/23 02:32:09;;;;;;;27.23;17.17;;;;;;;;;;5062320;28;20194;-87
2023/02/23 02:35:47;;;;;;;25.53;16.83;;;;;;;;;;5074247;28;20202;-87
2023/02/23 02:39:22;;;;;;;24.40;15.97;;;;;;;;;;5074301;28;20234;-87
2023/02/23 02:42:35;;;;;;;27.43;17.23;;;;;;;;;;5074535;28;20261;-87
2023/02/23 02:45:52;;;;;;;26.07;16.57;;;;;;;;;;5063009;28;20190;-88
2023/02/23 02:49:08;;;;;;;25.33;16.87;;;;;;;;;;5062539;28;20738;-87
2023/02/23 02:52:27;;;;;;;25.57;15.27;;;;;;;;;;5073943;28;20206;-87
2023/02/23 02:55:36;;;;;;;23.63;15.70;;;;;;;;;;5061988;28;20187;-87
2023/02/23 02:58:42;;;;;;;28.70;18.33;;;;;;;;;;5062128;28;20573;-88
2023/02/23 04:18:57;;;;;;;31.10;18.20;;;;;;;;;;5084653;28;20289;-87
2023/02/23 04:22:01;;;;;;;28.23;17.57;;;;;;;;;;5060730;28;20664;-88
2023/02/23 04:25:07;;;;;;;32.07;20.13;;;;;;;;;;5072447;28;20523;-88
2023/02/23 04:28:12;;;;;;;37.70;19.40;;;;;;;;;;5072096;28;20574;-88
2023/02/23 04:31:17;;;;;;;30.77;19.40;;;;;;;;;;5061567;28;20183;-87
2023/02/23 04:34:21;;;;;;;34.10;19.37;;;;;;;;;;5071644;28;20179;-87
2023/02/23 04:37:25;;;;;;;28.83;18.37;;;;;;;;;;5072264;28;20540;-87
2023/02/23 04:40:30;;;;;;;30.80;19.10;;;;;;;;;;5060517;28;20589;-88
2023/02/23 04:43:34;;;;;;;30.23;19.87;;;;;;;;;;5060421;28;20183;-88
2023/02/23 04:46:38;;;;;;;31.30;19.07;;;;;;;;;;5083518;28;20190;-87
2023/02/23 04:49:42;;;;;;;35.27;21.17;;;;;;;;;;5060456;28;20241;-87
2023/02/23 04:52:47;;;;;;;33.87;20.47;;;;;;;;;;5060245;28;20681;-88
2023/02/23 04:55:51;;;;;;;32.07;20.10;;;;;;;;;;5071578;28;20182;-88
2023/02/23 04:58:55;;;;;;;35.63;20.50;;;;;;;;;;5071241;28;20222;-87
2023/02/23 05:01:59;;;;;;;32.03;18.90;;;;;;;;;;5071230;28;20206;-86
2023/02/23 05:05:06;;;;;;;32.60;18.70;;;;;;;;;;5059645;28;20547;-88
2023/02/23 05:08:10;;;;;;;32.40;19.83;;;;;;;;;;5059446;28;20230;-87
2023/02/23 05:11:14;;;;;;;32.30;21.03;;;;;;;;;;5071007;28;20185;-88
2023/02/23 05:14:18;;;;;;;34.10;20.77;;;;;;;;;;5082919;28;20190;-87
2023/02/23 05:17:23;;;;;;;35.00;20.13;;;;;;;;;;5071183;28;20201;-87
2023/02/23 05:20:27;;;;;;;30.10;19.53;;;;;;;;;;5094521;28;20179;-87
2023/02/23 05:23:33;;;;;;;32.47;20.50;;;;;;;;;;5071275;28;20183;-87
2023/02/23 05:26:38;;;;;;;32.87;20.93;;;;;;;;;;5059895;28;20182;-88
2023/02/23 05:29:42;;;;;;;32.17;20.80;;;;;;;;;;5071040;28;20221;-88
2023/02/23 05:32:46;;;;;;;35.03;19.93;;;;;;;;;;5059601;28;20580;-88
2023/02/23 05:35:50;;;;;;;32.70;20.83;;;;;;;;;;5059658;28;20198;-88
2023/02/23 05:38:54;;;;;;;29.33;18.73;;;;;;;;;;5059370;28;20222;-88
2023/02/23 05:41:58;;;;;;;34.63;20.17;;;;;;;;;;5071106;28;20189;-87
2023/02/23 05:45:04;;;;;;;31.80;20.13;;;;;;;;;;5070719;28;20206;-88
2023/02/23 05:48:09;;;;;;;30.80;20.07;;;;;;;;;;5071630;28;20241;-87
2023/02/23 05:51:14;;;;;;;29.27;19.20;;;;;;;;;;5060076;28;20581;-88
2023/02/23 05:54:19;;;;;;;35.33;19.63;;;;;;;;;;5082904;28;20186;-87
2023/02/23 05:57:23;;;;;;;30.13;20.53;;;;;;;;;;5070820;28;20174;-87
2023/02/23 06:00:27;;;;;;;30.97;18.90;;;;;;;;;;5070775;28;20178;-88
2023/02/23 06:03:32;;;;;;;32.47;18.97;;;;;;;;;;5059883;28;20178;-87
2023/02/23 06:06:36;;;;;;;28.50;18.13;;;;;;;;;;5060312;28;20183;-87
2023/02/23 06:09:40;;;;;;;30.33;18.23;;;;;;;;;;5071203;28;20225;-88
2023/02/23 06:12:45;;;;;;;30.33;18.30;;;;;;;;;;5071301;28;20182;-87
2023/02/23 06:15:49;;;;;;;32.13;19.70;;;;;;;;;;5060209;28;20186;-88
2023/02/23 06:18:54;;;;;;;32.07;19.77;;;;;;;;;;5071239;28;20576;-88
2023/02/23 06:21:59;;;;;;;35.23;20.53;;;;;;;;;;5058929;28;20182;-88
2023/02/23 06:25:04;;;;;;;33.83;19.87;;;;;;;;;;5059685;28;20186;-88
2023/02/23 06:28:09;;;;;;;36.53;22.47;;;;;;;;;;5070993;28;20233;-88
2023/02/23 06:31:13;;;;;;;37.93;23.40;;;;;;;;;;5062137;28;20202;-88
2023/02/23 06:34:17;;;;;;;91.90;47.67;;;;;;;;;;5074109;28;20183;-88
2023/02/23 06:37:22;;;;;;;41.90;26.20;;;;;;;;;;5075843;28;20205;-87
2023/02/23 06:40:27;;;;;;;44.90;24.73;;;;;;;;;;5088877;28;20546;-88
2023/02/23 06:43:31;;;;;;;42.03;24.67;;;;;;;;;;5064900;28;20178;-87
2023/02/23 06:46:36;;;;;;;39.20;23.33;;;;;;;;;;5077358;28;20186;-87
2023/02/23 06:49:41;;;;;;;38.87;23.00;;;;;;;;;;5077102;28;20569;-88
2023/02/23 06:52:45;;;;;;;38.37;22.20;;;;;;;;;;5066341;28;20663;-88
2023/02/23 06:55:49;;;;;;;33.67;23.03;;;;;;;;;;5066040;28;20179;-88
2023/02/23 06:58:53;;;;;;;39.60;24.07;;;;;;;;;;5077292;28;20314;-88
2023/02/23 07:01:58;;;;;;;37.70;23.87;;;;;;;;;;5066174;28;20563;-88
2023/02/23 07:05:03;;;;;;;34.97;23.30;;;;;;;;;;5076549;28;20190;-88
2023/02/23 07:08:07;;;;;;;39.50;23.30;;;;;;;;;;5076724;28;20237;-88
2023/02/23 07:11:14;;;;;;;36.10;22.53;;;;;;;;;;5080757;28;20183;-88
2023/02/23 07:14:18;;;;;;;33.40;22.67;;;;;;;;;;5069587;28;20188;-87
2023/02/23 07:17:22;;;;;;;33.43;21.17;;;;;;;;;;5080844;28;20174;-88
2023/02/23 07:20:27;;;;;;;36.83;21.93;;;;;;;;;;5069631;28;20179;-88
2023/02/23 07:23:32;;;;;;;32.63;21.10;;;;;;;;;;5081536;28;20181;-88
2023/02/23 07:26:36;;;;;;;32.70;21.97;;;;;;;;;;5081632;28;20183;-87
2023/02/23 07:29:40;;;;;;;32.80;20.00;;;;;;;;;;5081893;28;20218;-88
2023/02/23 07:32:45;;;;;;;32.97;21.20;;;;;;;;;;5081885;28;20191;-88
2023/02/23 07:35:49;;;;;;;29.47;19.27;;;;;;;;;;5093148;28;20187;-88
2023/02/23 07:38:54;;;;;;;33.70;21.60;;;;;;;;;;5080716;28;20218;-88
2023/02/23 07:41:58;;;;;;;29.90;20.30;;;;;;;;;;5092677;28;20206;-87
2023/02/23 07:45:03;;;;;;;31.57;21.00;;;;;;;;;;5069605;28;20191;-88
2023/02/23 07:48:08;;;;;;;29.73;20.70;;;;;;;;;;5090418;28;20306;-88
2023/02/23 07:51:14;;;;;;;31.47;21.50;;;;;;;;;;5068378;28;20183;-88
2023/02/23 07:54:20;;;;;;;28.93;19.47;;;;;;;;;;5068035;28;20544;-88
2023/02/23 07:57:25;;;;;;;30.20;19.20;;;;;;;;;;5068043;28;20179;-88
2023/02/23 08:00:29;;;;;;;29.40;19.53;;;;;;;;;;5067789;28;20195;-88
2023/02/23 08:03:34;;;;;;;29.93;19.97;;;;;;;;;;5079279;28;20205;-88
2023/02/23 08:06:38;;;;;;;29.80;19.10;;;;;;;;;;5078527;28;20207;-88
2023/02/23 08:09:42;;;;;;;27.57;18.67;;;;;;;;;;5066678;28;20230;-87
2023/02/23 08:12:46;;;;;;;31.57;19.83;;;;;;;;;;5066565;28;20664;-88
2023/02/23 08:15:50;;;;;;;29.50;19.33;;;;;;;;;;5077939;28;20194;-88
2023/02/23 08:18:59;;;;;;;31.63;18.97;;;;;;;;;;5077184;28;20217;-88
2023/02/23 08:22:03;;;;;;;29.03;19.90;;;;;;;;;;5088549;28;20186;-88
2023/02/23 08:25:08;;;;;;;28.97;18.40;;;;;;;;;;5065465;28;20187;-88
2023/02/23 08:28:12;;;;;;;30.27;18.73;;;;;;;;;;5065147;28;20235;-87
2023/02/23 08:31:19;;;;;;;27.10;18.27;;;;;;;;;;5064852;28;20186;-88
2023/02/23 08:34:24;;;;;;;27.40;18.87;;;;;;;;;;5064785;28;20183;-88
2023/02/23 08:37:28;;;;;;;27.50;18.93;;;;;;;;;;5076413;28;20194;-88
2023/02/23 08:40:32;;;;;;;27.17;19.17;;;;;;;;;;5064900;28;20176;-87
2023/02/23 08:43:38;;;;;;;24.47;16.93;;;;;;;;;;5065074;28;20182;-88
2023/02/23 08:46:44;;;;;;;31.30;18.93;;;;;;;;;;5087325;28;20186;-88
2023/02/23 08:49:49;;;;;;;24.87;16.53;;;;;;;;;;5087190;28;20237;-88
2023/02/23 08:52:53;;;;;;;24.87;17.43;;;;;;;;;;5063514;28;20203;-88
2023/02/23 08:55:59;;;;;;;24.30;16.93;;;;;;;;;;5075137;28;20197;-88
2023/02/23 08:59:04;;;;;;;22.17;16.83;;;;;;;;;;5074689;28;20581;-88
2023/02/23 09:02:12;;;;;;;24.83;16.73;;;;;;;;;;5063598;28;20185;-88
2023/02/23 09:05:16;;;;;;;25.27;17.63;;;;;;;;;;5075060;28;20202;-88
2023/02/23 09:08:20;;;;;;;28.07;17.53;;;;;;;;;;5063096;28;20229;-88
2023/02/23 09:11:25;;;;;;;26.97;16.97;;;;;;;;;;5062938;28;20186;-88
2023/02/23 09:14:31;;;;;;;23.97;16.97;;;;;;;;;;5074001;28;20206;-87
2023/02/23 09:17:35;;;;;;;30.53;18.23;;;;;;;;;;5062703;28;20202;-88
2023/02/23 09:20:41;;;;;;;23.80;16.70;;;;;;;;;;5073577;28;20198;-88
2023/02/23 09:23:48;;;;;;;27.83;17.50;;;;;;;;;;5061989;28;20202;-87
2023/02/23 09:26:52;;;;;;;27.30;17.40;;;;;;;;;;5062814;28;20574;-88
2023/02/23 09:29:56;;;;;;;26.90;17.87;;;;;;;;;;5063268;28;20233;-88
2023/02/23 09:33:00;;;;;;;24.80;17.00;;;;;;;;;;5062245;28;20202;-88
2023/02/23 09:36:08;;;;;;;27.70;16.23;;;;;;;;;;5062616;28;20189;-88
2023/02/23 09:39:12;;;;;;;22.17;15.20;;;;;;;;;;5072860;28;20225;-88
2023/02/23 09:42:31;;;;;;;19.97;14.77;;;;;;;;;;5073258;28;20664;-88
2023/02/23 09:45:48;;;;;;;25.77;16.47;;;;;;;;;;5073110;28;20194;-88
2023/02/23 09:48:57;;;;;;;21.27;15.13;;;;;;;;;;5084658;28;20232;-88
2023/02/23 09:52:03;;;;;;;22.10;14.30;;;;;;;;;;5060783;28;20190;-88
2023/02/23 09:55:12;;;;;;;21.10;14.87;;;;;;;;;;5060736;28;20201;-88
2023/02/23 09:58:28;;;;;;;19.83;14.23;;;;;;;;;;5061148;28;20217;-88
2023/02/23 10:01:48;;;;;;;19.63;13.40;;;;;;;;;;5061424;28;20657;-88
2023/02/23 10:05:00;;;;;;;16.60;12.90;;;;;;;;;;5072159;28;20190;-88
2023/02/23 10:08:13;;;;;;;17.70;13.17;;;;;;;;;;5060736;28;20222;-88
2023/02/23 10:11:28;;;;;;;17.90;12.80;;;;;;;;;;5083957;28;20201;-88
2023/02/23 10:14:55;;;;;;;18.97;13.63;;;;;;;;;;5064246;28;20205;-88
2023/02/23 10:18:36;;;;;;;18.47;13.10;;;;;;;;;;5076281;28;20225;-88
2023/02/23 10:21:52;;;;;;;16.43;12.47;;;;;;;;;;5052231;28;20206;-88
2023/02/23 10:25:08;;;;;;;21.27;13.43;;;;;;;;;;5063855;28;20194;-88
2023/02/23 10:28:20;;;;;;;18.00;13.13;;;;;;;;;;5064042;28;20237;-88
2023/02/23 10:31:36;;;;;;;19.47;12.23;;;;;;;;;;5063749;28;20206;-89
2023/02/23 10:34:42;;;;;;;16.47;12.40;;;;;;;;;;5063883;28;20190;-88
2023/02/23 10:37:48;;;;;;;22.57;13.53;;;;;;;;;;5063630;28;20221;-89
2023/02/23 10:40:54;;;;;;;17.43;14.50;;;;;;;;;;5075066;28;20545;-88
2023/02/23 10:43:58;;;;;;;21.33;14.50;;;;;;;;;;5075307;28;20545;-88
2023/02/23 10:47:33;;;;;;;18.63;14.17;;;;;;;;;;5075389;28;20213;-88
2023/02/23 10:50:39;;;;;;;17.43;13.27;;;;;;;;;;5074989;28;20182;-88
2023/02/23 10:53:44;;;;;;;20.50;13.77;;;;;;;;;;5075051;28;20545;-88
2023/02/23 10:56:48;;;;;;;19.43;13.57;;;;;;;;;;5063427;28;20190;-88
2023/02/23 11:00:07;;;;;;;18.73;13.20;;;;;;;;;;5086169;28;20218;-88
2023/02/23 11:03:21;;;;;;;17.00;12.90;;;;;;;;;;5062866;28;20300;-89
2023/02/23 11:06:30;;;;;;;19.67;13.77;;;;;;;;;;5074502;28;20185;-88
2023/02/23 11:09:35;;;;;;;18.73;13.63;;;;;;;;;;5074641;28;20245;-89
2023/02/23 11:12:43;;;;;;;17.07;11.80;;;;;;;;;;5074445;28;20185;-88
2023/02/23 11:15:48;;;;;;;19.13;11.90;;;;;;;;;;5086228;28;20190;-88
2023/02/23 11:18:55;;;;;;;12.60;10.20;;;;;;;;;;5074670;28;20222;-88
2023/02/23 11:22:00;;;;;;;13.63;9.93;;;;;;;;;;5062902;28;20249;-88
2023/02/23 11:25:16;;;;;;;12.20;9.27;;;;;;;;;;5074381;28;20191;-88
2023/02/23 11:28:26;;;;;;;13.43;9.90;;;;;;;;;;5073919;28;20215;-88
2023/02/23 11:31:33;;;;;;;14.07;9.60;;;;;;;;;;5062846;28;20199;-88
2023/02/23 11:34:42;;;;;;;14.07;9.90;;;;;;;;;;5073700;28;20182;-88
2023/02/23 11:37:49;;;;;;;15.23;10.03;;;;;;;;;;5073806;28;20178;-89
2023/02/23 11:41:19;;;;;;;13.07;9.60;;;;;;;;;;5074465;28;20181;-88
2023/02/23 11:44:24;;;;;;;17.03;10.53;;;;;;;;;;5073711;28;20190;-88
2023/02/23 11:47:29;;;;;;;14.40;10.63;;;;;;;;;;5062162;28;20209;-88
2023/02/23 11:50:35;;;;;;;14.93;10.70;;;;;;;;;;5073838;28;20222;-88
2023/02/23 11:53:44;;;;;;;13.40;10.90;;;;;;;;;;5073141;28;20189;-89
2023/02/23 11:56:51;;;;;;;14.53;10.53;;;;;;;;;;5061750;28;20209;-88
2023/02/23 11:59:58;;;;;;;12.43;9.73;;;;;;;;;;5061854;28;20707;-88
2023/02/23 12:03:04;;;;;;;13.47;9.63;;;;;;;;;;5062043;28;20185;-88
2023/02/23 12:06:09;;;;;;;13.50;9.77;;;;;;;;;;5073690;28;20205;-88
2023/02/23 12:09:26;;;;;;;14.23;10.17;;;;;;;;;;5073043;28;20677;-88
2023/02/23 12:12:41;;;;;;;13.13;9.10;;;;;;;;;;5073995;28;20182;-88
2023/02/23 12:15:58;;;;;;;11.63;8.67;;;;;;;;;;5073517;28;20179;-88
2023/02/23 12:19:12;;;;;;;11.10;8.87;;;;;;;;;;5073221;28;20550;-88
2023/02/23 12:22:22;;;;;;;13.47;8.30;;;;;;;;;;5062032;28;20175;-88
2023/02/23 12:25:35;;;;;;;9.60;7.77;;;;;;;;;;5073071;28;20186;-88
2023/02/23 12:28:58;;;;;;;10.40;7.70;;;;;;;;;;5072603;28;20211;-88
2023/02/23 12:32:11;;;;;;;12.53;8.77;;;;;;;;;;5072713;28;20190;-88
2023/02/23 12:35:19;;;;;;;10.37;7.93;;;;;;;;;;5072324;28;20566;-89
2023/02/23 12:38:35;;;;;;;9.90;7.37;;;;;;;;;;5072337;28;20586;-88
2023/02/23 12:42:09;;;;;;;10.67;6.90;;;;;;;;;;5072778;28;20179;-88
2023/02/23 12:45:24;;;;;;;8.80;7.07;;;;;;;;;;5072264;28;20188;-89
2023/02/23 12:48:50;;;;;;;10.97;7.23;;;;;;;;;;5072490;28;20215;-88
2023/02/23 12:52:07;;;;;;;8.73;6.40;;;;;;;;;;5072360;28;20190;-88
2023/02/23 12:55:12;;;;;;;8.17;6.00;;;;;;;;;;5072437;28;20669;-88
2023/02/23 12:58:46;;;;;;;12.03;6.23;;;;;;;;;;5072673;28;20215;-88
2023/02/23 13:02:12;;;;;;;8.13;6.37;;;;;;;;;;5072318;28;20179;-88
2023/02/23 13:05:29;;;;;;;10.57;6.83;;;;;;;;;;5071695;28;20179;-88
2023/02/23 13:08:43;;;;;;;7.60;5.60;;;;;;;;;;5083553;28;20251;-88
2023/02/23 13:12:14;;;;;;;7.93;6.20;;;;;;;;;;5060510;28;20180;-88
2023/02/23 13:15:27;;;;;;;7.57;5.93;;;;;;;;;;5071915;28;20187;-88
2023/02/23 13:19:18;;;;;;;7.40;5.60;;;;;;;;;;5083563;28;20551;-88
2023/02/23 13:22:25;;;;;;;7.27;5.87;;;;;;;;;;5003235;28;20178;-88
2023/02/23 13:25:47;;;;;;;7.13;5.50;;;;;;;;;;4995857;28;20182;-89
2023/02/23 13:29:05;;;;;;;9.40;7.23;;;;;;;;;;5082974;28;20555;-89
2023/02/23 13:32:21;;;;;;;10.13;6.77;;;;;;;;;;5071566;28;20543;-88
2023/02/23 13:35:25;;;;;;;8.40;6.60;;;;;;;;;;5071767;28;20203;-88
2023/02/23 13:38:40;;;;;;;10.47;7.07;;;;;;;;;;5060492;28;20222;-88
2023/02/23 13:42:19;;;;;;;9.30;6.93;;;;;;;;;;5072195;28;20185;-88
2023/02/23 13:45:47;;;;;;;10.00;7.47;;;;;;;;;;5072419;28;20183;-89
2023/02/23 13:49:07;;;;;;;27.93;18.13;;;;;;;;;;5076366;28;20224;-88
2023/02/23 13:52:17;;;;;;;11.90;9.67;;;;;;;;;;5076798;28;20554;-88
2023/02/23 13:55:24;;;;;;;11.37;8.43;;;;;;;;;;5065045;28;20186;-88
2023/02/23 13:58:31;;;;;;;10.70;8.67;;;;;;;;;;5076321;28;20222;-88
2023/02/23 14:01:38;;;;;;;12.73;9.63;;;;;;;;;;5064844;28;20188;-88
2023/02/23 14:04:43;;;;;;;15.83;11.67;;;;;;;;;;5076423;28;20186;-88
2023/02/23 14:07:52;;;;;;;14.70;11.03;;;;;;;;;;5064310;28;20735;-88
2023/02/23 14:10:56;;;;;;;23.13;16.33;;;;;;;;;;5063953;28;20225;-88
2023/02/23 14:14:01;;;;;;;17.23;14.33;;;;;;;;;;5064004;28;20205;-89
2023/02/23 14:17:10;;;;;;;12.30;9.30;;;;;;;;;;5064421;28;20190;-88
2023/02/23 14:20:34;;;;;;;12.57;8.93;;;;;;;;;;5075597;28;20190;-88
2023/02/23 14:24:02;;;;;;;11.03;9.30;;;;;;;;;;5075954;28;20171;-88
2023/02/23 14:27:09;;;;;;;9.23;7.13;;;;;;;;;;5064608;28;20184;-88
2023/02/23 14:30:20;;;;;;;9.33;8.00;;;;;;;;;;5064441;28;20214;-88
2023/02/23 14:33:36;;;;;;;12.63;9.03;;;;;;;;;;5075995;28;20175;-88
2023/02/23 14:36:43;;;;;;;10.20;8.27;;;;;;;;;;5064266;28;20181;-88
2023/02/23 14:39:49;;;;;;;10.73;8.07;;;;;;;;;;5086501;28;20636;-88
2023/02/23 14:42:57;;;;;;;14.63;8.50;;;;;;;;;;5075349;28;20681;-88
2023/02/23 14:46:04;;;;;;;12.20;7.30;;;;;;;;;;5075918;28;20205;-88
2023/02/23 14:49:18;;;;;;;8.77;7.10;;;;;;;;;;5075186;28;20210;-88
2023/02/23 14:52:26;;;;;;;10.83;6.50;;;;;;;;;;5074711;28;20171;-88
2023/02/23 14:55:34;;;;;;;9.93;7.13;;;;;;;;;;5074994;28;20191;-88
2023/02/23 14:58:38;;;;;;;12.30;7.10;;;;;;;;;;5074409;28;20218;-88
2023/02/23 15:01:42;;;;;;;15.87;6.70;;;;;;;;;;5074917;28;20184;-88
2023/02/23 15:04:46;;;;;;;8.20;6.17;;;;;;;;;;5074914;28;20186;-89
2023/02/23 15:07:53;;;;;;;8.80;6.43;;;;;;;;;;5074572;28;20199;-88
2023/02/23 15:11:12;;;;;;;13.17;7.50;;;;;;;;;;5086392;28;20210;-88
2023/02/23 15:14:16;;;;;;;8.43;6.60;;;;;;;;;;5074674;28;20186;-88
2023/02/23 15:17:24;;;;;;;7.13;5.40;;;;;;;;;;5074687;28;20293;-88
2023/02/23 15:20:32;;;;;;;32.00;23.53;;;;;;;;;;5074929;28;20174;-89
2023/02/23 15:23:37;;;;;;;11.40;7.77;;;;;;;;;;5074556;28;20561;-88
2023/02/23 15:26:42;;;;;;;10.30;6.83;;;;;;;;;;5074930;28;20191;-88
2023/02/23 15:29:47;;;;;;;9.13;6.53;;;;;;;;;;5074170;28;20210;-88
2023/02/23 15:32:59;;;;;;;17.90;12.47;;;;;;;;;;5063820;28;20183;-88
2023/02/23 15:36:12;;;;;;;42.00;25.43;;;;;;;;;;5085357;28;20206;-88
2023/02/23 15:39:20;;;;;;;16.83;12.10;;;;;;;;;;5076404;28;20237;-88
2023/02/23 15:42:41;;;;;;;10.83;8.13;;;;;;;;;;5073719;28;20187;-88
2023/02/23 15:45:51;;;;;;;10.83;7.53;;;;;;;;;;5073735;28;20191;-88
2023/02/23 15:49:02;;;;;;;9.43;7.37;;;;;;;;;;5074283;28;20215;-88
2023/02/23 15:52:13;;;;;;;10.47;7.40;;;;;;;;;;5074378;28;20179;-88
2023/02/23 15:55:24;;;;;;;10.67;6.20;;;;;;;;;;5074325;28;20186;-88
2023/02/23 15:58:36;;;;;;;11.07;6.40;;;;;;;;;;5073987;28;20736;-88
2023/02/23 16:01:43;;;;;;;8.27;6.07;;;;;;;;;;5062096;28;20198;-88
2023/02/23 16:04:48;;;;;;;10.63;6.13;;;;;;;;;;5062003;28;20638;-88
2023/02/23 16:08:04;;;;;;;8.27;6.50;;;;;;;;;;5062218;28;20205;-88
2023/02/23 16:11:17;;;;;;;8.57;6.10;;;;;;;;;;5074179;28;20238;-88
2023/02/23 16:14:23;;;;;;;9.83;5.87;;;;;;;;;;5085873;28;20194;-88
2023/02/23 16:17:41;;;;;;;7.83;6.03;;;;;;;;;;5085449;28;20182;-88
2023/02/23 16:20:54;;;;;;;12.27;7.93;;;;;;;;;;5073537;28;20191;-88
2023/02/23 16:24:05;;;;;;;10.83;7.40;;;;;;;;;;5062200;28;20193;-88
2023/02/23 16:27:10;;;;;;;9.97;7.20;;;;;;;;;;5084812;28;20211;-88
2023/02/23 16:30:35;;;;;;;7.63;5.47;;;;;;;;;;5061831;28;20226;-88
2023/02/23 16:33:42;;;;;;;8.20;6.37;;;;;;;;;;5073424;28;20208;-88
2023/02/23 16:36:53;;;;;;;11.00;6.80;;;;;;;;;;5073295;28;20198;-88
2023/02/23 16:40:00;;;;;;;7.50;5.63;;;;;;;;;;5073715;28;20229;-88
2023/02/23 16:43:04;;;;;;;10.33;6.10;;;;;;;;;;5073414;28;20183;-88
2023/02/23 16:46:08;;;;;;;13.53;7.73;;;;;;;;;;5073007;28;20187;-88
2023/02/23 16:49:12;;;;;;;13.47;8.53;;;;;;;;;;5073374;28;20222;-88
2023/02/23 16:52:22;;;;;;;9.90;6.30;;;;;;;;;;5073720;28;20233;-88
2023/02/23 16:55:28;;;;;;;9.43;6.37;;;;;;;;;;5073146;28;20179;-88
2023/02/23 16:58:34;;;;;;;8.57;6.23;;;;;;;;;;5072938;28;20214;-88
2023/02/23 17:01:38;;;;;;;10.77;6.67;;;;;;;;;;5072788;28;20175;-88
2023/02/23 17:04:47;;;;;;;15.47;9.07;;;;;;;;;;5084510;28;20186;-88
2023/02/23 17:07:52;;;;;;;11.30;7.77;;;;;;;;;;5072715;28;20187;-88
2023/02/23 17:10:56;;;;;;;17.47;8.67;;;;;;;;;;5072494;28;20222;-88
2023/02/23 17:14:01;;;;;;;19.37;10.50;;;;;;;;;;5072764;28;20186;-88
2023/02/23 17:17:05;;;;;;;15.13;10.03;;;;;;;;;;5084191;28;20349;-88
2023/02/23 17:20:16;;;;;;;12.27;8.70;;;;;;;;;;5061604;28;20189;-88
2023/02/23 17:23:25;;;;;;;9.57;7.23;;;;;;;;;;5072505;28;20197;-88
2023/02/23 17:26:29;;;;;;;10.17;6.67;;;;;;;;;;5072792;28;20179;-88
2023/02/23 17:29:34;;;;;;;12.07;7.57;;;;;;;;;;5072202;28;20218;-88
2023/02/23 17:32:38;;;;;;;10.30;6.70;;;;;;;;;;5072815;28;20183;-88
2023/02/23 17:35:43;;;;;;;10.50;6.43;;;;;;;;;;5060800;28;20174;-88
2023/02/23 17:38:47;;;;;;;10.97;7.00;;;;;;;;;;5084400;28;20222;-88
2023/02/23 17:41:51;;;;;;;8.77;6.10;;;;;;;;;;5073549;28;20186;-88
2023/02/23 17:44:56;;;;;;;9.93;6.43;;;;;;;;;;5073098;28;20202;-88
2023/02/23 17:48:00;;;;;;;7.17;5.50;;;;;;;;;;5073110;28;20214;-88
2023/02/23 17:51:09;;;;;;;11.27;6.37;;;;;;;;;;5072553;28;20222;-88
2023/02/23 17:54:13;;;;;;;10.07;7.23;;;;;;;;;;5083752;28;20191;-88
2023/02/23 17:57:17;;;;;;;11.30;6.27;;;;;;;;;;5072597;28;20179;-88
2023/02/23 18:00:23;;;;;;;8.43;6.43;;;;;;;;;;5073098;28;20179;-88
2023/02/23 18:03:32;;;;;;;7.87;6.13;;;;;;;;;;5072894;28;20178;-88
2023/02/23 18:06:36;;;;;;;8.43;6.10;;;;;;;;;;5073016;28;20522;-88
2023/02/23 18:09:40;;;;;;;8.17;6.30;;;;;;;;;;5073269;28;20685;-88
2023/02/23 18:12:45;;;;;;;9.53;5.80;;;;;;;;;;5073593;28;20206;-88
2023/02/23 18:15:52;;;;;;;7.70;5.83;;;;;;;;;;5072791;28;20183;-88
2023/02/23 18:18:56;;;;;;;7.50;5.13;;;;;;;;;;5072855;28;20218;-88
2023/02/23 18:22:01;;;;;;;7.30;5.80;;;;;;;;;;5072587;28;20179;-88
2023/02/23 18:25:06;;;;;;;8.60;5.70;;;;;;;;;;5061314;28;20642;-88
2023/02/23 18:28:11;;;;;;;8.57;5.97;;;;;;;;;;5060438;28;20214;-88
2023/02/23 18:31:21;;;;;;;8.67;5.50;;;;;;;;;;5083806;28;20546;-88
2023/02/23 18:34:27;;;;;;;9.27;6.20;;;;;;;;;;5076680;28;20179;-88
2023/02/23 18:37:31;;;;;;;10.73;7.43;;;;;;;;;;5064814;28;20195;-88
2023/02/23 18:40:37;;;;;;;10.70;6.77;;;;;;;;;;5075747;28;20549;-88
2023/02/23 18:43:42;;;;;;;9.83;6.87;;;;;;;;;;5075521;28;20183;-88
2023/02/23 18:46:46;;;;;;;9.10;6.30;;;;;;;;;;5075628;28;20182;-88
2023/02/23 18:49:51;;;;;;;8.43;6.37;;;;;;;;;;5075536;28;20214;-88
2023/02/23 18:52:57;;;;;;;9.37;6.50;;;;;;;;;;5075294;28;20211;-88
2023/02/23 18:56:08;;;;;;;10.20;7.37;;;;;;;;;;5063636;28;20637;-89
2023/02/23 18:59:12;;;;;;;9.57;7.53;;;;;;;;;;5074801;28;20218;-88
2023/02/23 19:02:17;;;;;;;12.83;8.17;;;;;;;;;;5064131;28;20179;-88
2023/02/23 19:05:22;;;;;;;10.37;6.80;;;;;;;;;;5076434;28;20199;-88
2023/02/23 19:08:29;;;;;;;16.77;8.07;;;;;;;;;;5064037;28;20226;-88
2023/02/23 19:11:34;;;;;;;11.90;7.50;;;;;;;;;;5074726;28;20215;-88
2023/02/23 19:14:39;;;;;;;11.30;7.30;;;;;;;;;;5074904;28;20174;-88
2023/02/23 19:17:43;;;;;;;14.43;9.90;;;;;;;;;;5075082;28;20539;-88
2023/02/23 19:20:51;;;;;;;14.53;10.17;;;;;;;;;;5062911;28;20629;-88
2023/02/23 19:23:59;;;;;;;14.93;9.20;;;;;;;;;;5074629;28;20660;-88
2023/02/23 19:27:04;;;;;;;13.57;8.93;;;;;;;;;;5074952;28;20182;-88
2023/02/23 19:30:09;;;;;;;12.07;8.40;;;;;;;;;;5075082;28;20646;-88
2023/02/23 19:33:15;;;;;;;13.60;9.33;;;;;;;;;;5086878;28;20183;-88
2023/02/23 19:36:22;;;;;;;15.40;10.30;;;;;;;;;;5074271;28;20194;-88
2023/02/23 19:39:27;;;;;;;14.00;9.23;;;;;;;;;;5074064;28;20226;-88
2023/02/23 19:42:33;;;;;;;13.37;9.43;;;;;;;;;;5074241;28;20175;-88